sensor_id;sensor_type;location;lat;lon;timestamp;temperature;humidity
67868;SHT31;54672;46.096;14.470;2023-09-08T00:02:02;16.71;84.43
67868;SHT31;54672;46.096;14.470;2023-09-08T00:04:28;16.73;84.69
67868;SHT31;54672;46.096;14.470;2023-09-08T00:06:53;16.63;84.94
67868;SHT31;54672;46.096;14.470;2023-09-08T00:09:19;16.55;85.17
67868;SHT31;54672;46.096;14.470;2023-09-08T00:11:44;16.42;85.62
67868;SHT31;54672;46.096;14.470;2023-09-08T00:14:10;16.31;86.37
67868;SHT31;54672;46.096;14.470;2023-09-08T00:16:35;16.21;86.75
67868;SHT31;54672;46.096;14.470;2023-09-08T00:19:01;16.21;86.56
67868;SHT31;54672;46.096;14.470;2023-09-08T00:21:26;16.13;87.10
67868;SHT31;54672;46.096;14.470;2023-09-08T00:23:52;16.05;87.38
67868;SHT31;54672;46.096;14.470;2023-09-08T00:26:18;15.94;87.97
67868;SHT31;54672;46.096;14.470;2023-09-08T00:28:43;15.86;88.39
67868;SHT31;54672;46.096;14.470;2023-09-08T00:31:09;15.74;88.68
67868;SHT31;54672;46.096;14.470;2023-09-08T00:33:34;15.64;88.98
67868;SHT31;54672;46.096;14.470;2023-09-08T00:36:00;15.57;89.34
67868;SHT31;54672;46.096;14.470;2023-09-08T00:38:25;15.57;90.42
67868;SHT31;54672;46.096;14.470;2023-09-08T00:40:51;15.53;90.63
67868;SHT31;54672;46.096;14.470;2023-09-08T00:43:17;15.52;91.10
67868;SHT31;54672;46.096;14.470;2023-09-08T00:45:43;15.43;90.97
67868;SHT31;54672;46.096;14.470;2023-09-08T00:48:09;15.43;91.37
67868;SHT31;54672;46.096;14.470;2023-09-08T00:50:36;15.36;91.94
67868;SHT31;54672;46.096;14.470;2023-09-08T00:53:04;15.35;92.01
67868;SHT31;54672;46.096;14.470;2023-09-08T00:55:29;15.24;92.22
67868;SHT31;54672;46.096;14.470;2023-09-08T00:57:56;15.16;92.47
67868;SHT31;54672;46.096;14.470;2023-09-08T01:00:21;15.09;92.42
67868;SHT31;54672;46.096;14.470;2023-09-08T01:02:47;15.09;92.58
67868;SHT31;54672;46.096;14.470;2023-09-08T01:05:13;15.04;92.42
67868;SHT31;54672;46.096;14.470;2023-09-08T01:07:40;15.02;92.51
67868;SHT31;54672;46.096;14.470;2023-09-08T01:10:06;15.08;92.43
67868;SHT31;54672;46.096;14.470;2023-09-08T01:12:32;15.12;92.40
67868;SHT31;54672;46.096;14.470;2023-09-08T01:15:03;15.11;92.54
67868;SHT31;54672;46.096;14.470;2023-09-08T01:17:28;15.05;92.81
67868;SHT31;54672;46.096;14.470;2023-09-08T01:19:55;15.09;92.94
67868;SHT31;54672;46.096;14.470;2023-09-08T01:25:28;14.98;93.38
67868;SHT31;54672;46.096;14.470;2023-09-08T01:27:55;14.95;93.65
67868;SHT31;54672;46.096;14.470;2023-09-08T01:30:25;14.92;93.90
67868;SHT31;54672;46.096;14.470;2023-09-08T01:32:53;14.98;93.82
67868;SHT31;54672;46.096;14.470;2023-09-08T01:35:19;14.98;93.67
67868;SHT31;54672;46.096;14.470;2023-09-08T01:37:45;14.85;93.91
67868;SHT31;54672;46.096;14.470;2023-09-08T01:40:11;14.81;94.23
67868;SHT31;54672;46.096;14.470;2023-09-08T01:42:38;14.81;94.34
67868;SHT31;54672;46.096;14.470;2023-09-08T01:45:04;14.73;94.32
67868;SHT31;54672;46.096;14.470;2023-09-08T01:47:30;14.67;94.44
67868;SHT31;54672;46.096;14.470;2023-09-08T01:49:56;14.61;94.59
67868;SHT31;54672;46.096;14.470;2023-09-08T01:52:22;14.56;94.89
67868;SHT31;54672;46.096;14.470;2023-09-08T01:54:47;14.48;95.12
67868;SHT31;54672;46.096;14.470;2023-09-08T01:57:13;14.40;94.93
67868;SHT31;54672;46.096;14.470;2023-09-08T01:59:38;14.38;94.85
67868;SHT31;54672;46.096;14.470;2023-09-08T02:02:03;14.33;95.12
67868;SHT31;54672;46.096;14.470;2023-09-08T02:04:29;14.32;95.07
67868;SHT31;54672;46.096;14.470;2023-09-08T02:06:55;14.30;95.07
67868;SHT31;54672;46.096;14.470;2023-09-08T02:09:20;14.34;95.05
67868;SHT31;54672;46.096;14.470;2023-09-08T02:11:46;14.32;95.07
67868;SHT31;54672;46.096;14.470;2023-09-08T02:14:11;14.37;94.87
67868;SHT31;54672;46.096;14.470;2023-09-08T02:16:37;14.34;95.05
67868;SHT31;54672;46.096;14.470;2023-09-08T02:19:02;14.32;94.97
67868;SHT31;54672;46.096;14.470;2023-09-08T02:21:27;14.34;95.18
67868;SHT31;54672;46.096;14.470;2023-09-08T02:23:53;14.33;95.29
67868;SHT31;54672;46.096;14.470;2023-09-08T02:26:18;14.26;95.12
67868;SHT31;54672;46.096;14.470;2023-09-08T02:28:44;14.19;95.52
67868;SHT31;54672;46.096;14.470;2023-09-08T02:31:09;14.23;95.67
67868;SHT31;54672;46.096;14.470;2023-09-08T02:33:35;14.24;95.65
67868;SHT31;54672;46.096;14.470;2023-09-08T02:36:06;14.15;95.42
67868;SHT31;54672;46.096;14.470;2023-09-08T02:38:32;14.12;95.74
67868;SHT31;54672;46.096;14.470;2023-09-08T02:40:58;14.05;96.18
67868;SHT31;54672;46.096;14.470;2023-09-08T02:43:23;14.09;96.19
67868;SHT31;54672;46.096;14.470;2023-09-08T02:45:49;14.05;96.00
67868;SHT31;54672;46.096;14.470;2023-09-08T02:48:15;13.99;96.13
67868;SHT31;54672;46.096;14.470;2023-09-08T02:50:41;13.99;96.36
67868;SHT31;54672;46.096;14.470;2023-09-08T02:53:07;13.93;96.75
67868;SHT31;54672;46.096;14.470;2023-09-08T02:55:32;13.87;96.76
67868;SHT31;54672;46.096;14.470;2023-09-08T02:57:58;13.85;96.87
67868;SHT31;54672;46.096;14.470;2023-09-08T03:00:24;13.81;96.99
67868;SHT31;54672;46.096;14.470;2023-09-08T03:02:50;13.74;96.92
67868;SHT31;54672;46.096;14.470;2023-09-08T03:05:15;13.74;97.24
67868;SHT31;54672;46.096;14.470;2023-09-08T03:07:40;13.74;97.19
67868;SHT31;54672;46.096;14.470;2023-09-08T03:10:06;13.83;97.38
67868;SHT31;54672;46.096;14.470;2023-09-08T03:12:32;13.79;97.14
67868;SHT31;54672;46.096;14.470;2023-09-08T03:14:57;13.74;97.23
67868;SHT31;54672;46.096;14.470;2023-09-08T03:17:22;13.69;97.43
67868;SHT31;54672;46.096;14.470;2023-09-08T03:19:48;13.62;97.64
67868;SHT31;54672;46.096;14.470;2023-09-08T03:22:13;13.59;97.75
67868;SHT31;54672;46.096;14.470;2023-09-08T03:24:39;13.58;97.82
67868;SHT31;54672;46.096;14.470;2023-09-08T03:27:04;13.54;97.83
67868;SHT31;54672;46.096;14.470;2023-09-08T03:29:30;13.47;97.90
67868;SHT31;54672;46.096;14.470;2023-09-08T03:31:55;13.45;98.55
67868;SHT31;54672;46.096;14.470;2023-09-08T03:34:20;13.44;98.47
67868;SHT31;54672;46.096;14.470;2023-09-08T03:36:48;13.44;98.65
67868;SHT31;54672;46.096;14.470;2023-09-08T03:39:13;13.40;98.69
67868;SHT31;54672;46.096;14.470;2023-09-08T03:41:39;13.33;98.88
67868;SHT31;54672;46.096;14.470;2023-09-08T03:44:04;13.25;98.91
67868;SHT31;54672;46.096;14.470;2023-09-08T03:46:30;13.21;99.40
67868;SHT31;54672;46.096;14.470;2023-09-08T03:48:55;13.20;99.52
67868;SHT31;54672;46.096;14.470;2023-09-08T03:51:26;13.15;99.65
67868;SHT31;54672;46.096;14.470;2023-09-08T03:53:51;13.11;99.93
67868;SHT31;54672;46.096;14.470;2023-09-08T03:56:17;13.03;99.82
67868;SHT31;54672;46.096;14.470;2023-09-08T03:58:42;13.00;99.97
67868;SHT31;54672;46.096;14.470;2023-09-08T04:01:08;12.96;99.99
67868;SHT31;54672;46.096;14.470;2023-09-08T04:03:33;12.96;99.99
67868;SHT31;54672;46.096;14.470;2023-09-08T04:05:58;12.93;99.99
67868;SHT31;54672;46.096;14.470;2023-09-08T04:08:24;12.89;99.99
67868;SHT31;54672;46.096;14.470;2023-09-08T04:10:49;12.97;99.99
67868;SHT31;54672;46.096;14.470;2023-09-08T04:13:15;12.94;99.92
67868;SHT31;54672;46.096;14.470;2023-09-08T04:15:40;12.94;99.99
67868;SHT31;54672;46.096;14.470;2023-09-08T04:18:06;12.92;99.99
67868;SHT31;54672;46.096;14.470;2023-09-08T04:20:31;12.90;99.99
67868;SHT31;54672;46.096;14.470;2023-09-08T04:22:56;12.90;99.99
67868;SHT31;54672;46.096;14.470;2023-09-08T04:25:22;12.86;99.96
67868;SHT31;54672;46.096;14.470;2023-09-08T04:27:47;12.82;99.99
67868;SHT31;54672;46.096;14.470;2023-09-08T04:30:13;12.83;99.99
67868;SHT31;54672;46.096;14.470;2023-09-08T04:32:38;12.79;99.99
67868;SHT31;54672;46.096;14.470;2023-09-08T04:35:04;12.80;99.99
67868;SHT31;54672;46.096;14.470;2023-09-08T04:37:30;12.79;99.99
67868;SHT31;54672;46.096;14.470;2023-09-08T04:39:56;12.82;99.92
67868;SHT31;54672;46.096;14.470;2023-09-08T04:42:21;12.94;99.43
67868;SHT31;54672;46.096;14.470;2023-09-08T04:44:48;13.04;98.89
67868;SHT31;54672;46.096;14.470;2023-09-08T04:47:14;13.23;98.30
67868;SHT31;54672;46.096;14.470;2023-09-08T04:49:39;13.35;97.35
67868;SHT31;54672;46.096;14.470;2023-09-08T04:52:05;13.57;96.58
67868;SHT31;54672;46.096;14.470;2023-09-08T04:54:30;13.62;95.86
67868;SHT31;54672;46.096;14.470;2023-09-08T04:56:57;13.86;94.99
67868;SHT31;54672;46.096;14.470;2023-09-08T04:59:22;14.24;93.48
67868;SHT31;54672;46.096;14.470;2023-09-08T05:01:49;14.26;93.24
67868;SHT31;54672;46.096;14.470;2023-09-08T05:04:17;14.47;92.39
67868;SHT31;54672;46.096;14.470;2023-09-08T05:06:43;14.80;91.06
67868;SHT31;54672;46.096;14.470;2023-09-08T05:09:08;15.24;89.35
67868;SHT31;54672;46.096;14.470;2023-09-08T05:11:34;15.71;87.65
67868;SHT31;54672;46.096;14.470;2023-09-08T05:13:59;16.38;85.71
67868;SHT31;54672;46.096;14.470;2023-09-08T05:16:25;16.44;84.57
67868;SHT31;54672;46.096;14.470;2023-09-08T05:19:10;16.76;83.93
67868;SHT31;54672;46.096;14.470;2023-09-08T05:21:36;16.96;82.86
67868;SHT31;54672;46.096;14.470;2023-09-08T05:24:02;16.99;82.56
67868;SHT31;54672;46.096;14.470;2023-09-08T05:26:28;18.39;79.60
67868;SHT31;54672;46.096;14.470;2023-09-08T05:28:53;18.22;78.79
67868;SHT31;54672;46.096;14.470;2023-09-08T05:31:18;18.81;76.41
67868;SHT31;54672;46.096;14.470;2023-09-08T05:33:44;19.39;74.97
67868;SHT31;54672;46.096;14.470;2023-09-08T05:36:09;20.71;71.51
67868;SHT31;54672;46.096;14.470;2023-09-08T05:38:35;21.19;69.97
67868;SHT31;54672;46.096;14.470;2023-09-08T05:41:00;21.90;67.06
67868;SHT31;54672;46.096;14.470;2023-09-08T05:43:26;20.62;71.26
67868;SHT31;54672;46.096;14.470;2023-09-08T05:45:51;21.29;68.84
67868;SHT31;54672;46.096;14.470;2023-09-08T05:48:17;22.55;66.37
67868;SHT31;54672;46.096;14.470;2023-09-08T05:50:42;22.09;66.47
67868;SHT31;54672;46.096;14.470;2023-09-08T05:53:08;22.99;64.72
67868;SHT31;54672;46.096;14.470;2023-09-08T05:55:33;23.48;63.81
67868;SHT31;54672;46.096;14.470;2023-09-08T05:57:59;24.05;61.32
67868;SHT31;54672;46.096;14.470;2023-09-08T06:00:24;24.31;60.99
67868;SHT31;54672;46.096;14.470;2023-09-08T06:02:49;24.56;60.32
67868;SHT31;54672;46.096;14.470;2023-09-08T06:05:15;24.36;60.98
67868;SHT31;54672;46.096;14.470;2023-09-08T06:07:40;24.75;59.43
67868;SHT31;54672;46.096;14.470;2023-09-08T06:10:06;24.65;60.15
67868;SHT31;54672;46.096;14.470;2023-09-08T06:12:31;25.09;58.89
67868;SHT31;54672;46.096;14.470;2023-09-08T06:14:57;24.89;59.27
67868;SHT31;54672;46.096;14.470;2023-09-08T06:17:22;24.85;59.41
67868;SHT31;54672;46.096;14.470;2023-09-08T06:19:48;24.71;59.42
67868;SHT31;54672;46.096;14.470;2023-09-08T06:22:13;24.81;59.79
67868;SHT31;54672;46.096;14.470;2023-09-08T06:24:39;25.43;58.05
67868;SHT31;54672;46.096;14.470;2023-09-08T06:27:05;22.19;66.29
67868;SHT31;54672;46.096;14.470;2023-09-08T06:29:31;21.82;68.13
67868;SHT31;54672;46.096;14.470;2023-09-08T06:31:57;21.90;68.67
67868;SHT31;54672;46.096;14.470;2023-09-08T06:34:22;23.73;63.64
67868;SHT31;54672;46.096;14.470;2023-09-08T06:36:48;24.40;62.03
67868;SHT31;54672;46.096;14.470;2023-09-08T06:39:14;24.23;61.70
67868;SHT31;54672;46.096;14.470;2023-09-08T06:41:39;24.94;60.21
67868;SHT31;54672;46.096;14.470;2023-09-08T06:44:05;24.75;60.26
67868;SHT31;54672;46.096;14.470;2023-09-08T06:46:30;25.49;58.91
67868;SHT31;54672;46.096;14.470;2023-09-08T06:48:56;25.14;58.08
67868;SHT31;54672;46.096;14.470;2023-09-08T06:51:21;25.38;58.49
67868;SHT31;54672;46.096;14.470;2023-09-08T06:53:54;25.80;57.50
67868;SHT31;54672;46.096;14.470;2023-09-08T06:56:21;26.05;55.87
67868;SHT31;54672;46.096;14.470;2023-09-08T06:58:46;23.89;59.84
67868;SHT31;54672;46.096;14.470;2023-09-08T07:01:12;22.12;65.79
67868;SHT31;54672;46.096;14.470;2023-09-08T07:03:37;22.26;66.42
67868;SHT31;54672;46.096;14.470;2023-09-08T07:06:03;24.09;60.66
67868;SHT31;54672;46.096;14.470;2023-09-08T07:08:29;21.98;66.50
67868;SHT31;54672;46.096;14.470;2023-09-08T07:10:54;23.95;61.64
67868;SHT31;54672;46.096;14.470;2023-09-08T07:13:20;25.15;59.26
67868;SHT31;54672;46.096;14.470;2023-09-08T07:15:45;24.14;60.97
67868;SHT31;54672;46.096;14.470;2023-09-08T07:18:10;25.83;58.28
67868;SHT31;54672;46.096;14.470;2023-09-08T07:20:36;26.34;56.98
67868;SHT31;54672;46.096;14.470;2023-09-08T07:23:02;23.85;61.92
67868;SHT31;54672;46.096;14.470;2023-09-08T07:25:27;24.10;61.41
67868;SHT31;54672;46.096;14.470;2023-09-08T07:27:53;26.02;57.54
67868;SHT31;54672;46.096;14.470;2023-09-08T07:30:22;24.99;59.73
67868;SHT31;54672;46.096;14.470;2023-09-08T07:32:47;26.32;57.20
67868;SHT31;54672;46.096;14.470;2023-09-08T07:35:12;25.91;57.05
67868;SHT31;54672;46.096;14.470;2023-09-08T07:37:40;26.78;55.14
67868;SHT31;54672;46.096;14.470;2023-09-08T07:40:08;25.16;59.15
67868;SHT31;54672;46.096;14.470;2023-09-08T07:42:34;26.14;56.86
67868;SHT31;54672;46.096;14.470;2023-09-08T07:44:59;27.51;52.40
67868;SHT31;54672;46.096;14.470;2023-09-08T07:47:25;27.78;51.09
67868;SHT31;54672;46.096;14.470;2023-09-08T07:49:50;27.98;51.30
67868;SHT31;54672;46.096;14.470;2023-09-08T07:52:16;28.55;50.41
67868;SHT31;54672;46.096;14.470;2023-09-08T07:54:41;28.68;50.30
67868;SHT31;54672;46.096;14.470;2023-09-08T07:57:07;26.90;53.17
67868;SHT31;54672;46.096;14.470;2023-09-08T07:59:32;27.77;52.18
67868;SHT31;54672;46.096;14.470;2023-09-08T08:01:58;28.19;51.37
67868;SHT31;54672;46.096;14.470;2023-09-08T08:04:23;28.47;49.90
67868;SHT31;54672;46.096;14.470;2023-09-08T08:06:49;28.37;51.02
67868;SHT31;54672;46.096;14.470;2023-09-08T08:09:16;28.09;51.73
67868;SHT31;54672;46.096;14.470;2023-09-08T08:11:41;27.91;51.32
67868;SHT31;54672;46.096;14.470;2023-09-08T08:14:07;24.34;59.03
67868;SHT31;54672;46.096;14.470;2023-09-08T08:16:32;24.67;58.64
67868;SHT31;54672;46.096;14.470;2023-09-08T08:18:58;25.65;57.53
67868;SHT31;54672;46.096;14.470;2023-09-08T08:21:24;26.18;56.42
67868;SHT31;54672;46.096;14.470;2023-09-08T08:23:50;24.63;60.53
67868;SHT31;54672;46.096;14.470;2023-09-08T08:26:16;25.98;56.44
67868;SHT31;54672;46.096;14.470;2023-09-08T08:28:42;25.87;56.60
67868;SHT31;54672;46.096;14.470;2023-09-08T08:31:07;25.05;58.54
67868;SHT31;54672;46.096;14.470;2023-09-08T08:33:33;26.20;55.69
67868;SHT31;54672;46.096;14.470;2023-09-08T08:35:58;27.30;54.06
67868;SHT31;54672;46.096;14.470;2023-09-08T08:38:24;26.16;55.14
67868;SHT31;54672;46.096;14.470;2023-09-08T08:40:49;27.85;53.12
67868;SHT31;54672;46.096;14.470;2023-09-08T08:43:15;28.22;51.37
67868;SHT31;54672;46.096;14.470;2023-09-08T08:45:42;29.17;50.73
67868;SHT31;54672;46.096;14.470;2023-09-08T08:48:08;29.28;50.92
67868;SHT31;54672;46.096;14.470;2023-09-08T08:50:35;28.39;51.81
67868;SHT31;54672;46.096;14.470;2023-09-08T08:53:01;27.89;53.04
67868;SHT31;54672;46.096;14.470;2023-09-08T08:55:30;28.15;51.78
67868;SHT31;54672;46.096;14.470;2023-09-08T08:58:03;27.95;51.56
67868;SHT31;54672;46.096;14.470;2023-09-08T09:00:29;26.73;54.45
67868;SHT31;54672;46.096;14.470;2023-09-08T09:02:55;25.70;56.64
67868;SHT31;54672;46.096;14.470;2023-09-08T09:05:22;24.99;58.42
67868;SHT31;54672;46.096;14.470;2023-09-08T09:07:48;24.41;59.74
67868;SHT31;54672;46.096;14.470;2023-09-08T09:10:14;24.17;58.67
67868;SHT31;54672;46.096;14.470;2023-09-08T09:12:40;23.90;60.07
67868;SHT31;54672;46.096;14.470;2023-09-08T09:15:06;23.88;61.25
67868;SHT31;54672;46.096;14.470;2023-09-08T09:17:33;24.12;60.86
67868;SHT31;54672;46.096;14.470;2023-09-08T09:20:19;24.17;60.39
67868;SHT31;54672;46.096;14.470;2023-09-08T09:22:46;24.13;62.39
67868;SHT31;54672;46.096;14.470;2023-09-08T09:25:31;24.13;61.30
67868;SHT31;54672;46.096;14.470;2023-09-08T09:27:58;24.13;61.32
67868;SHT31;54672;46.096;14.470;2023-09-08T09:30:25;24.06;61.03
67868;SHT31;54672;46.096;14.470;2023-09-08T09:35:46;24.60;59.77
67868;SHT31;54672;46.096;14.470;2023-09-08T09:38:12;24.70;58.55
67868;SHT31;54672;46.096;14.470;2023-09-08T09:40:38;24.71;59.41
67868;SHT31;54672;46.096;14.470;2023-09-08T09:43:04;24.50;58.90
67868;SHT31;54672;46.096;14.470;2023-09-08T09:45:31;24.46;58.42
67868;SHT31;54672;46.096;14.470;2023-09-08T09:47:57;24.49;58.84
67868;SHT31;54672;46.096;14.470;2023-09-08T09:50:34;24.56;59.70
67868;SHT31;54672;46.096;14.470;2023-09-08T09:53:03;24.89;58.18
67868;SHT31;54672;46.096;14.470;2023-09-08T09:55:33;25.16;58.20
67868;SHT31;54672;46.096;14.470;2023-09-08T09:58:01;25.36;58.62
67868;SHT31;54672;46.096;14.470;2023-09-08T10:00:30;25.47;58.11
67868;SHT31;54672;46.096;14.470;2023-09-08T10:02:56;25.57;56.62
67868;SHT31;54672;46.096;14.470;2023-09-08T10:05:23;24.91;58.30
67868;SHT31;54672;46.096;14.470;2023-09-08T10:07:49;25.18;57.14
67868;SHT31;54672;46.096;14.470;2023-09-08T10:10:16;25.18;56.80
67868;SHT31;54672;46.096;14.470;2023-09-08T10:12:46;25.15;58.76
67868;SHT31;54672;46.096;14.470;2023-09-08T10:15:14;25.16;57.20
67868;SHT31;54672;46.096;14.470;2023-09-08T10:17:44;25.22;57.41
67868;SHT31;54672;46.096;14.470;2023-09-08T10:20:10;25.33;57.98
67868;SHT31;54672;46.096;14.470;2023-09-08T10:22:42;25.62;57.80
67868;SHT31;54672;46.096;14.470;2023-09-08T10:25:09;25.86;57.87
67868;SHT31;54672;46.096;14.470;2023-09-08T10:27:35;25.93;56.36
67868;SHT31;54672;46.096;14.470;2023-09-08T10:30:03;25.96;56.01
67868;SHT31;54672;46.096;14.470;2023-09-08T10:32:35;25.53;57.99
67868;SHT31;54672;46.096;14.470;2023-09-08T10:35:02;25.62;57.94
67868;SHT31;54672;46.096;14.470;2023-09-08T10:37:28;25.98;57.46
67868;SHT31;54672;46.096;14.470;2023-09-08T10:40:40;26.18;57.02
67868;SHT31;54672;46.096;14.470;2023-09-08T10:42:40;26.29;55.29
67868;SHT31;54672;46.096;14.470;2023-09-08T10:45:17;26.29;54.34
67868;SHT31;54672;46.096;14.470;2023-09-08T10:50:25;26.13;56.32
67868;SHT31;54672;46.096;14.470;2023-09-08T10:53:14;26.13;55.22
67868;SHT31;54672;46.096;14.470;2023-09-08T10:55:44;25.57;56.34
67868;SHT31;54672;46.096;14.470;2023-09-08T11:01:04;26.25;56.12
67868;SHT31;54672;46.096;14.470;2023-09-08T11:06:03;26.27;54.51
67868;SHT31;54672;46.096;14.470;2023-09-08T11:08:29;26.45;54.84
67868;SHT31;54672;46.096;14.470;2023-09-08T11:10:55;26.27;55.79
67868;SHT31;54672;46.096;14.470;2023-09-08T11:13:20;26.56;55.38
67868;SHT31;54672;46.096;14.470;2023-09-08T11:15:46;26.65;53.63
67868;SHT31;54672;46.096;14.470;2023-09-08T11:18:11;26.63;53.73
67868;SHT31;54672;46.096;14.470;2023-09-08T11:20:37;26.38;53.65
67868;SHT31;54672;46.096;14.470;2023-09-08T11:23:03;26.71;53.42
67868;SHT31;54672;46.096;14.470;2023-09-08T11:25:31;26.45;53.11
67868;SHT31;54672;46.096;14.470;2023-09-08T11:27:58;26.37;53.52
67868;SHT31;54672;46.096;14.470;2023-09-08T11:30:25;26.08;55.04
67868;SHT31;54672;46.096;14.470;2023-09-08T11:32:50;26.24;53.05
67868;SHT31;54672;46.096;14.470;2023-09-08T11:35:16;26.13;54.32
67868;SHT31;54672;46.096;14.470;2023-09-08T11:37:42;25.87;54.04
67868;SHT31;54672;46.096;14.470;2023-09-08T11:40:09;25.60;54.47
67868;SHT31;54672;46.096;14.470;2023-09-08T11:42:38;25.59;54.81
67868;SHT31;54672;46.096;14.470;2023-09-08T11:45:16;25.47;54.77
67868;SHT31;54672;46.096;14.470;2023-09-08T11:47:46;25.70;54.49
67868;SHT31;54672;46.096;14.470;2023-09-08T11:50:12;26.02;53.61
67868;SHT31;54672;46.096;14.470;2023-09-08T11:52:44;26.16;53.24
67868;SHT31;54672;46.096;14.470;2023-09-08T11:55:11;26.47;53.99
67868;SHT31;54672;46.096;14.470;2023-09-08T11:57:38;26.76;52.25
67868;SHT31;54672;46.096;14.470;2023-09-08T12:00:05;26.82;52.06
67868;SHT31;54672;46.096;14.470;2023-09-08T12:02:35;26.90;52.84
67868;SHT31;54672;46.096;14.470;2023-09-08T12:05:05;26.80;52.33
67868;SHT31;54672;46.096;14.470;2023-09-08T12:07:30;26.93;51.16
67868;SHT31;54672;46.096;14.470;2023-09-08T12:09:56;27.04;51.32
67868;SHT31;54672;46.096;14.470;2023-09-08T12:12:25;27.06;51.36
67868;SHT31;54672;46.096;14.470;2023-09-08T12:14:50;27.07;50.78
67868;SHT31;54672;46.096;14.470;2023-09-08T12:17:16;27.07;51.32
67868;SHT31;54672;46.096;14.470;2023-09-08T12:19:43;26.97;51.39
67868;SHT31;54672;46.096;14.470;2023-09-08T12:22:08;27.02;51.03
67868;SHT31;54672;46.096;14.470;2023-09-08T12:27:19;26.73;51.50
67868;SHT31;54672;46.096;14.470;2023-09-08T12:32:23;26.72;51.43
67868;SHT31;54672;46.096;14.470;2023-09-08T12:34:50;27.04;51.00
67868;SHT31;54672;46.096;14.470;2023-09-08T12:37:20;26.93;50.57
67868;SHT31;54672;46.096;14.470;2023-09-08T12:39:46;26.68;52.48
67868;SHT31;54672;46.096;14.470;2023-09-08T12:42:12;26.39;53.84
67868;SHT31;54672;46.096;14.470;2023-09-08T12:44:37;26.17;54.94
67868;SHT31;54672;46.096;14.470;2023-09-08T12:47:03;26.07;54.90
67868;SHT31;54672;46.096;14.470;2023-09-08T12:49:28;25.96;54.44
67868;SHT31;54672;46.096;14.470;2023-09-08T12:51:54;26.11;54.00
67868;SHT31;54672;46.096;14.470;2023-09-08T12:54:19;26.31;54.31
67868;SHT31;54672;46.096;14.470;2023-09-08T12:56:45;26.53;53.63
67868;SHT31;54672;46.096;14.470;2023-09-08T12:59:10;26.63;53.38
67868;SHT31;54672;46.096;14.470;2023-09-08T13:01:35;26.69;52.74
67868;SHT31;54672;46.096;14.470;2023-09-08T13:04:01;26.52;53.61
67868;SHT31;54672;46.096;14.470;2023-09-08T13:06:26;26.22;52.71
67868;SHT31;54672;46.096;14.470;2023-09-08T13:08:52;26.31;53.37
67868;SHT31;54672;46.096;14.470;2023-09-08T13:11:18;26.29;52.99
67868;SHT31;54672;46.096;14.470;2023-09-08T13:13:43;26.48;52.15
67868;SHT31;54672;46.096;14.470;2023-09-08T13:16:08;26.62;52.48
67868;SHT31;54672;46.096;14.470;2023-09-08T13:18:34;26.73;52.11
67868;SHT31;54672;46.096;14.470;2023-09-08T13:21:03;26.96;51.76
67868;SHT31;54672;46.096;14.470;2023-09-08T13:23:28;27.02;52.70
67868;SHT31;54672;46.096;14.470;2023-09-08T13:25:54;26.92;51.67
67868;SHT31;54672;46.096;14.470;2023-09-08T13:28:19;26.96;50.63
67868;SHT31;54672;46.096;14.470;2023-09-08T13:30:45;26.99;51.39
67868;SHT31;54672;46.096;14.470;2023-09-08T13:33:10;26.97;50.40
67868;SHT31;54672;46.096;14.470;2023-09-08T13:35:36;26.85;51.24
67868;SHT31;54672;46.096;14.470;2023-09-08T13:38:01;26.80;51.55
67868;SHT31;54672;46.096;14.470;2023-09-08T13:40:28;26.85;50.70
67868;SHT31;54672;46.096;14.470;2023-09-08T13:42:54;26.79;50.89
67868;SHT31;54672;46.096;14.470;2023-09-08T13:45:19;26.85;51.52
67868;SHT31;54672;46.096;14.470;2023-09-08T13:47:44;26.92;52.52
67868;SHT31;54672;46.096;14.470;2023-09-08T13:50:10;26.90;52.42
67868;SHT31;54672;46.096;14.470;2023-09-08T13:52:35;26.72;51.56
67868;SHT31;54672;46.096;14.470;2023-09-08T13:55:01;26.68;51.85
67868;SHT31;54672;46.096;14.470;2023-09-08T13:57:27;26.75;51.54
67868;SHT31;54672;46.096;14.470;2023-09-08T13:59:52;26.82;51.93
67868;SHT31;54672;46.096;14.470;2023-09-08T14:02:19;26.79;52.22
67868;SHT31;54672;46.096;14.470;2023-09-08T14:04:45;26.76;51.58
67868;SHT31;54672;46.096;14.470;2023-09-08T14:07:10;26.78;52.26
67868;SHT31;54672;46.096;14.470;2023-09-08T14:09:35;26.78;51.96
67868;SHT31;54672;46.096;14.470;2023-09-08T14:12:02;26.80;51.53
67868;SHT31;54672;46.096;14.470;2023-09-08T14:14:27;26.87;51.62
67868;SHT31;54672;46.096;14.470;2023-09-08T14:16:53;26.87;53.00
67868;SHT31;54672;46.096;14.470;2023-09-08T14:19:18;26.79;51.53
67868;SHT31;54672;46.096;14.470;2023-09-08T14:21:43;26.72;51.84
67868;SHT31;54672;46.096;14.470;2023-09-08T14:24:09;26.58;51.11
67868;SHT31;54672;46.096;14.470;2023-09-08T14:26:34;26.63;51.28
67868;SHT31;54672;46.096;14.470;2023-09-08T14:29:00;26.71;52.48
67868;SHT31;54672;46.096;14.470;2023-09-08T14:31:26;26.76;51.50
67868;SHT31;54672;46.096;14.470;2023-09-08T14:33:51;26.76;51.09
67868;SHT31;54672;46.096;14.470;2023-09-08T14:36:20;26.66;51.82
67868;SHT31;54672;46.096;14.470;2023-09-08T14:38:45;26.66;51.96
67868;SHT31;54672;46.096;14.470;2023-09-08T14:41:11;26.48;51.95
67868;SHT31;54672;46.096;14.470;2023-09-08T14:43:36;26.47;52.56
67868;SHT31;54672;46.096;14.470;2023-09-08T14:46:02;26.55;52.63
67868;SHT31;54672;46.096;14.470;2023-09-08T14:48:30;26.63;52.07
67868;SHT31;54672;46.096;14.470;2023-09-08T14:50:56;26.68;52.62
67868;SHT31;54672;46.096;14.470;2023-09-08T14:53:22;26.60;51.65
67868;SHT31;54672;46.096;14.470;2023-09-08T14:55:48;26.52;51.61
67868;SHT31;54672;46.096;14.470;2023-09-08T14:58:15;26.42;51.63
67868;SHT31;54672;46.096;14.470;2023-09-08T15:00:40;26.37;52.08
67868;SHT31;54672;46.096;14.470;2023-09-08T15:03:07;26.37;51.27
67868;SHT31;54672;46.096;14.470;2023-09-08T15:05:34;26.32;51.59
67868;SHT31;54672;46.096;14.470;2023-09-08T15:08:00;26.37;51.26
67868;SHT31;54672;46.096;14.470;2023-09-08T15:10:26;26.34;51.51
67868;SHT31;54672;46.096;14.470;2023-09-08T15:12:52;26.27;51.46
67868;SHT31;54672;46.096;14.470;2023-09-08T15:15:18;26.27;51.78
67868;SHT31;54672;46.096;14.470;2023-09-08T15:17:50;26.16;51.75
67868;SHT31;54672;46.096;14.470;2023-09-08T15:20:16;26.02;52.47
67868;SHT31;54672;46.096;14.470;2023-09-08T15:22:41;26.02;52.53
67868;SHT31;54672;46.096;14.470;2023-09-08T15:25:07;26.07;52.18
67868;SHT31;54672;46.096;14.470;2023-09-08T15:27:33;26.07;52.12
67868;SHT31;54672;46.096;14.470;2023-09-08T15:29:58;26.04;52.43